createdAt,value
2017-09-16T07:16:07.794Z,82.5
2017-09-16T07:17:09.197Z,82.8
2017-09-16T07:18:30.737Z,82.3
2017-09-16T07:19:32.138Z,82.8
2017-09-16T07:20:53.676Z,82.7
2017-09-16T07:21:55.083Z,82.8
2017-09-16T07:23:16.645Z,81.2
2017-09-16T07:24:18.059Z,81.0
2017-09-16T07:25:39.568Z,81.1
2017-09-16T07:26:40.975Z,81.3
2017-09-16T07:28:02.569Z,80.7
2017-09-16T07:29:03.981Z,81.0
2017-09-16T07:30:25.656Z,79.9
2017-09-16T07:31:27.073Z,80.0
2017-09-16T07:32:48.670Z,80.0
2017-09-16T07:33:50.077Z,79.9
2017-09-16T07:35:11.584Z,79.8
2017-09-16T07:36:13.049Z,79.7
2017-09-16T07:37:34.572Z,79.4
2017-09-16T07:38:35.980Z,79.2
2017-09-16T07:39:57.488Z,79.1
2017-09-16T07:40:58.896Z,79.2
2017-09-16T07:42:20.456Z,79.3
2017-09-16T07:43:21.863Z,78.4
2017-09-16T07:44:43.390Z,77.9
2017-09-16T07:45:44.797Z,77.7
2017-09-16T07:47:06.349Z,77.3
2017-09-16T07:48:07.757Z,77.7
2017-09-16T07:49:29.315Z,76.2
2017-09-16T07:50:30.724Z,76.0
2017-09-16T07:51:52.240Z,76.1
2017-09-16T07:52:53.649Z,76.9
2017-09-16T07:54:15.211Z,77.0
2017-09-16T07:55:16.621Z,77.0
2017-09-16T07:56:38.143Z,75.3
2017-09-16T07:57:39.550Z,76.0
2017-09-16T07:59:01.113Z,76.5
2017-09-16T08:00:02.526Z,75.8
2017-09-16T08:01:24.174Z,75.1
2017-09-16T08:02:25.582Z,74.4
2017-09-16T08:03:47.254Z,74.3
2017-09-16T08:04:48.661Z,75.3
2017-09-16T08:06:10.246Z,75.4
2017-09-16T08:07:11.654Z,75.2
2017-09-16T08:08:33.232Z,74.3
2017-09-16T08:09:34.638Z,75.2
2017-09-16T08:10:56.149Z,75.7
2017-09-16T08:11:57.556Z,75.0
2017-09-16T08:13:19.117Z,75.3
2017-09-16T08:14:20.527Z,75.1
2017-09-16T08:15:42.046Z,75.2
2017-09-16T08:16:43.452Z,73.8
2017-09-16T08:18:05.023Z,74.0
2017-09-16T08:19:06.431Z,74.1
2017-09-16T08:20:27.946Z,74.9
2017-09-16T08:21:29.353Z,74.5
2017-09-16T08:22:50.914Z,75.0
2017-09-16T08:23:52.324Z,75.2
2017-09-16T08:25:13.845Z,74.5
2017-09-16T08:26:15.250Z,74.6
2017-09-16T08:27:36.954Z,74.5
2017-09-16T08:28:38.362Z,74.9
2017-09-16T08:30:00.013Z,75.3
2017-09-16T08:31:01.420Z,74.3
2017-09-16T08:32:22.910Z,73.5
2017-09-16T08:33:24.318Z,73.7
2017-09-16T08:34:46.379Z,72.9
2017-09-16T08:35:47.784Z,73.7
2017-09-16T08:37:09.328Z,73.5
2017-09-16T08:38:10.737Z,74.2
2017-09-16T08:39:32.261Z,74.3
2017-09-16T08:40:33.668Z,75.0
2017-09-16T08:41:55.205Z,74.5
2017-09-16T08:42:56.614Z,75.2
2017-09-16T08:44:18.127Z,74.5
2017-09-16T08:45:19.539Z,73.7
2017-09-16T08:46:41.070Z,72.7
2017-09-16T08:47:42.495Z,72.9
2017-09-16T08:49:05.807Z,73.1
2017-09-16T08:50:07.260Z,73.4
2017-09-16T08:51:28.833Z,73.5
2017-09-16T08:52:30.248Z,72.4
2017-09-16T08:53:51.917Z,72.1
2017-09-16T08:54:53.330Z,72.2
2017-09-16T08:56:14.910Z,72.3
2017-09-16T08:57:16.312Z,72.2
2017-09-16T08:58:37.911Z,71.7
2017-09-16T08:59:39.334Z,71.2
2017-09-16T09:01:00.914Z,71.3
2017-09-16T09:02:02.530Z,71.3
2017-09-16T09:03:24.130Z,70.9
2017-09-16T09:04:25.538Z,69.7
2017-09-16T09:05:47.119Z,70.2
2017-09-16T09:06:48.526Z,69.8
2017-09-16T09:08:10.124Z,71.7
2017-09-16T09:09:11.534Z,71.8
2017-09-16T09:10:33.113Z,71.3
2017-09-16T09:11:34.519Z,71.5
2017-09-16T09:12:56.591Z,71.3
2017-09-16T09:13:57.999Z,69.7
2017-09-16T09:15:19.585Z,69.5
2017-09-16T09:16:21.072Z,68.7
2017-09-16T09:17:42.723Z,69.4
2017-09-16T09:18:44.139Z,69.4
2017-09-16T09:20:05.757Z,68.4
2017-09-16T09:21:07.168Z,67.4
2017-09-16T09:22:29.308Z,67.7
2017-09-16T09:23:30.768Z,67.4
2017-09-16T09:24:52.306Z,67.2
2017-09-16T09:25:53.717Z,67.3
2017-09-16T09:27:16.070Z,67.6
2017-09-16T09:28:17.895Z,67.3
2017-09-16T09:29:39.430Z,68.5
2017-09-16T09:30:40.858Z,68.2
2017-09-16T09:32:03.387Z,67.0
2017-09-16T09:33:04.802Z,66.7
2017-09-16T09:34:26.356Z,66.6
2017-09-16T09:35:27.770Z,64.8
2017-09-16T09:36:49.446Z,66.2
2017-09-16T09:37:50.854Z,66.7
2017-09-16T09:39:12.453Z,66.4
2017-09-16T09:40:13.963Z,67.2
2017-09-16T09:41:35.593Z,66.9
2017-09-16T09:42:37.002Z,67.0
2017-09-16T09:44:00.096Z,65.3
2017-09-16T09:45:01.508Z,64.7
2017-09-16T09:46:23.129Z,64.4
2017-09-16T09:47:24.539Z,64.1
2017-09-16T09:48:46.099Z,63.0
2017-09-16T09:49:47.510Z,64.1
2017-09-16T09:51:09.198Z,63.4
2017-09-16T09:52:10.611Z,64.3
2017-09-16T09:53:32.712Z,64.7
2017-09-16T09:54:34.120Z,63.9
2017-09-16T09:55:55.810Z,63.4
2017-09-16T09:56:57.224Z,63.2
2017-09-16T09:58:18.804Z,62.8
2017-09-16T09:59:20.216Z,62.7
2017-09-16T10:00:41.764Z,62.4
2017-09-16T10:01:43.175Z,63.7
2017-09-16T10:03:04.791Z,64.2
2017-09-16T10:04:06.203Z,63.1
2017-09-16T10:05:27.767Z,62.2
2017-09-16T10:06:29.180Z,62.2
2017-09-16T10:07:50.806Z,62.8
2017-09-16T10:08:52.216Z,62.8
2017-09-16T10:10:13.772Z,63.3
2017-09-16T10:11:15.183Z,62.1
2017-09-16T10:12:36.800Z,62.2
2017-09-16T10:13:38.218Z,63.1
2017-09-16T10:15:02.399Z,62.0
2017-09-16T10:16:03.865Z,62.9
2017-09-16T10:17:25.549Z,62.2
2017-09-16T10:18:26.958Z,62.7
2017-09-16T10:19:48.537Z,62.0
2017-09-16T10:20:49.946Z,61.1
2017-09-16T10:22:11.468Z,59.9
2017-09-16T10:23:12.909Z,61.4
2017-09-16T10:24:34.628Z,63.0
2017-09-16T10:25:36.038Z,62.9
2017-09-16T10:26:57.618Z,61.2
2017-09-16T10:27:59.028Z,61.3
2017-09-16T10:29:20.688Z,60.3
2017-09-16T10:30:22.096Z,61.3
2017-09-16T10:31:43.677Z,61.1
2017-09-16T10:32:45.086Z,60.8
2017-09-16T10:34:06.689Z,59.9
2017-09-16T10:35:08.102Z,60.3
2017-09-16T10:36:29.684Z,60.1
2017-09-16T10:37:31.188Z,61.2
2017-09-16T10:38:52.909Z,61.0
2017-09-16T10:39:54.318Z,61.2
2017-09-16T10:41:15.892Z,61.8
2017-09-16T10:42:17.349Z,61.9
2017-09-16T10:43:39.035Z,61.9
2017-09-16T10:44:40.443Z,60.7
2017-09-16T10:46:02.045Z,60.4
2017-09-16T10:47:03.457Z,60.0
2017-09-16T10:48:25.062Z,59.3
2017-09-16T10:49:26.479Z,59.3
2017-09-16T10:50:48.057Z,59.8
2017-09-16T10:51:49.483Z,59.9
2017-09-16T10:53:11.087Z,61.2
2017-09-16T10:54:12.498Z,61.7
2017-09-16T10:55:34.210Z,62.0
2017-09-16T10:56:35.617Z,60.0
2017-09-16T10:57:58.699Z,60.2
2017-09-16T10:59:00.111Z,60.1
2017-09-16T11:00:21.704Z,58.9
2017-09-16T11:01:23.171Z,58.8
2017-09-16T11:02:44.711Z,59.8
2017-09-16T11:03:46.121Z,59.8
2017-09-16T11:05:07.726Z,60.1
2017-09-16T11:06:09.133Z,60.5
2017-09-16T11:07:30.714Z,60.5
2017-09-16T11:08:32.128Z,61.1
2017-09-16T11:09:53.726Z,60.5
2017-09-16T11:10:55.143Z,60.2
2017-09-16T11:12:16.733Z,59.4
2017-09-16T11:13:18.141Z,60.1
2017-09-16T11:14:39.797Z,59.6
2017-09-16T11:15:41.247Z,59.2
2017-09-16T11:17:02.829Z,58.2
2017-09-16T11:18:04.243Z,57.5
2017-09-16T11:19:25.844Z,58.3
2017-09-16T11:20:27.254Z,57.7
2017-09-16T11:21:48.846Z,57.9
2017-09-16T11:22:50.261Z,54.8
2017-09-16T11:24:11.933Z,55.0
2017-09-16T11:25:13.348Z,54.5
2017-09-16T11:26:34.950Z,56.1
2017-09-16T11:27:36.362Z,55.1
2017-09-16T11:28:57.934Z,55.8
2017-09-16T11:29:59.343Z,56.0
2017-09-16T11:31:21.004Z,56.4
2017-09-16T11:32:22.414Z,57.8
2017-09-16T11:33:43.996Z,58.2
2017-09-16T11:34:45.450Z,58.2
2017-09-16T11:36:07.067Z,57.3
2017-09-16T11:37:08.477Z,56.0
2017-09-16T11:38:30.130Z,57.0
2017-09-16T11:39:31.543Z,55.0
2017-09-16T11:40:53.204Z,55.9
2017-09-16T11:41:54.621Z,56.4
2017-09-16T11:43:16.204Z,56.5
2017-09-16T11:44:17.649Z,56.7
2017-09-16T11:45:39.313Z,57.9
2017-09-16T11:46:40.727Z,57.0
2017-09-16T11:48:02.318Z,58.2
2017-09-16T11:49:03.727Z,58.9
2017-09-16T11:50:25.351Z,56.1
2017-09-16T11:51:26.764Z,56.2
2017-09-16T11:52:48.395Z,54.7
2017-09-16T11:53:49.806Z,54.2
2017-09-16T11:55:11.359Z,55.7
2017-09-16T11:56:12.771Z,55.6
2017-09-16T11:57:34.292Z,55.5
2017-09-16T11:58:35.703Z,54.9
2017-09-16T11:59:57.238Z,54.2
2017-09-16T12:00:58.693Z,54.3
2017-09-16T12:02:20.275Z,54.1
2017-09-16T12:03:21.719Z,54.4
2017-09-16T12:04:43.249Z,54.7
2017-09-16T12:05:44.658Z,54.2
2017-09-16T12:07:06.195Z,55.0
2017-09-16T12:08:07.608Z,54.7
2017-09-16T12:09:29.147Z,55.1
2017-09-16T12:10:30.557Z,55.4
2017-09-16T12:11:52.118Z,55.2
2017-09-16T12:12:53.530Z,56.1
2017-09-16T12:14:15.053Z,54.7
2017-09-16T12:15:16.463Z,54.8
2017-09-16T12:16:38.022Z,54.3
2017-09-16T12:17:39.435Z,54.0
2017-09-16T12:19:00.951Z,54.1
2017-09-16T12:20:02.363Z,53.9
2017-09-16T12:21:23.894Z,54.9
2017-09-16T12:22:25.305Z,55.6
2017-09-16T12:23:46.852Z,55.7
2017-09-16T12:24:48.262Z,55.3
2017-09-16T12:26:09.822Z,55.3
2017-09-16T12:27:11.232Z,55.3
2017-09-16T12:28:32.755Z,56.2
2017-09-16T12:29:34.165Z,57.6
2017-09-16T12:30:55.725Z,56.9
2017-09-16T12:31:57.134Z,56.7
2017-09-16T12:33:18.655Z,56.5
2017-09-16T12:34:20.067Z,55.9
2017-09-16T12:35:41.624Z,56.2
2017-09-16T12:36:43.036Z,56.4
2017-09-16T12:38:04.558Z,57.9
2017-09-16T12:39:05.969Z,56.9
2017-09-16T12:40:27.527Z,56.7
2017-09-16T12:41:28.943Z,57.1
2017-09-16T12:42:50.458Z,57.8
2017-09-16T12:43:51.868Z,58.1
2017-09-16T12:45:13.428Z,58.6
2017-09-16T12:46:14.837Z,58.6
2017-09-16T12:47:36.359Z,58.6
2017-09-16T12:48:37.773Z,58.6
2017-09-16T12:49:59.310Z,58.2
2017-09-16T12:51:00.719Z,57.8
2017-09-16T12:52:22.287Z,57.9
2017-09-16T12:53:23.691Z,58.6
2017-09-16T12:54:45.213Z,57.0
2017-09-16T12:55:46.623Z,57.7
2017-09-16T12:57:08.183Z,58.0
2017-09-16T12:58:09.591Z,58.8
2017-09-16T12:59:31.115Z,58.9
2017-09-16T13:00:32.526Z,58.1
2017-09-16T13:01:54.085Z,56.2
2017-09-16T13:02:55.495Z,55.2
2017-09-16T13:04:17.014Z,55.9
2017-09-16T13:05:18.426Z,55.1
2017-09-16T13:06:39.983Z,52.5
2017-09-16T13:07:41.395Z,53.2
2017-09-16T13:09:02.915Z,51.1
2017-09-16T13:10:04.329Z,53.3
2017-09-16T13:11:25.885Z,53.7
2017-09-16T13:12:27.298Z,53.9
2017-09-16T13:13:48.818Z,52.7
2017-09-16T13:14:50.231Z,53.1
2017-09-16T13:16:11.787Z,53.7
2017-09-16T13:17:13.192Z,53.0
2017-09-16T13:18:34.801Z,52.8
2017-09-16T13:19:36.210Z,53.5
2017-09-16T13:20:57.793Z,53.0
2017-09-16T13:21:59.202Z,52.9
2017-09-16T13:23:20.725Z,52.7
2017-09-16T13:24:22.142Z,51.9
2017-09-16T13:25:43.695Z,51.9
2017-09-16T13:26:45.106Z,50.9
2017-09-16T13:28:06.626Z,51.8
2017-09-16T13:29:08.036Z,51.3
2017-09-16T13:30:29.595Z,51.0
2017-09-16T13:31:31.005Z,51.0
2017-09-16T13:32:52.555Z,50.7
2017-09-16T13:33:53.945Z,50.9
2017-09-16T13:35:15.478Z,50.3
2017-09-16T13:36:16.888Z,51.6
2017-09-16T13:37:38.439Z,51.6
2017-09-16T13:38:39.858Z,51.9
2017-09-16T13:40:01.372Z,50.4
2017-09-16T13:41:02.784Z,50.8
2017-09-16T13:42:24.349Z,51.9
2017-09-16T13:43:25.763Z,51.7
2017-09-16T13:44:47.268Z,52.0
2017-09-16T13:45:48.684Z,51.0
2017-09-16T13:47:10.243Z,51.9
2017-09-16T13:48:11.654Z,50.9
2017-09-16T13:49:33.168Z,51.2
2017-09-16T13:50:34.582Z,49.6
2017-09-16T13:51:56.136Z,48.6
2017-09-16T13:52:57.549Z,49.1
2017-09-16T13:54:19.066Z,50.5
2017-09-16T13:55:20.478Z,50.2
2017-09-16T13:56:42.053Z,49.2
2017-09-16T13:57:43.462Z,49.3
2017-09-16T13:59:04.986Z,50.3
2017-09-16T14:00:06.398Z,50.4
2017-09-16T14:01:27.932Z,50.6
2017-09-16T14:02:29.344Z,50.3
2017-09-16T14:03:50.886Z,51.5
2017-09-16T14:04:52.297Z,51.9
2017-09-16T14:06:13.831Z,50.7
2017-09-16T14:07:15.241Z,51.1
2017-09-16T14:08:36.762Z,51.6
2017-09-16T14:09:38.173Z,55.1
2017-09-16T14:10:59.731Z,55.7
2017-09-16T14:12:01.141Z,56.9
2017-09-16T14:13:23.203Z,57.9
2017-09-16T14:14:24.613Z,58.2
2017-09-16T14:15:46.154Z,58.3
2017-09-16T14:16:47.563Z,58.1
2017-09-16T14:18:09.093Z,57.9
2017-09-16T14:19:10.505Z,58.0
2017-09-16T14:20:32.054Z,57.7
2017-09-16T14:21:33.465Z,57.7
2017-09-16T14:22:55.023Z,57.9
2017-09-16T14:23:56.436Z,58.3
2017-09-16T14:25:17.957Z,58.1
2017-09-16T14:26:19.371Z,58.7
2017-09-16T14:27:40.926Z,57.6
2017-09-16T14:28:42.334Z,56.8
2017-09-16T14:30:03.857Z,56.7
2017-09-16T14:31:05.276Z,56.9
2017-09-16T14:32:26.833Z,57.3
2017-09-16T14:33:28.245Z,58.0
2017-09-16T14:34:49.764Z,55.9
2017-09-16T14:35:51.171Z,54.8
2017-09-16T14:37:15.700Z,54.9
